Ledyard, Iowa
Current Conditions -  °F | °C
As of 10:55 PM on Thursday 30 Oct 2014 (Local Time) from KFRM Reporting Station
Overcast Overcast  
Wind Chill: 27°   Ceiling: 3700
Heat Index: 37°   Visibility: 10mi
Dew Point: 19°   Wind: 21mph
Humidity: 48%   Direction: 340°NNW
Pressure: 30.34"   Gusts: 32mph
Location:  43.42°N, 94.16°W
Report Text: KFRM 310355Z AUTO 34018G28KT 10SM OVC037 03/M07 A3034 RMK AO1
Loading
Personal Weather Stations






























Interactive Weather Map
Tropical Storm Tracking
New forecast layout! Learn more

10-Day Weather Forecast

Advertisements
Track Severe Weather on mobile